createdAt,value
2019-03-27T00:00:31.615Z,0.00
2019-03-27T00:01:31.606Z,0.00
2019-03-27T00:02:31.603Z,0.00
2019-03-27T00:03:31.604Z,0.00
2019-03-27T00:04:31.618Z,0.00
2019-03-27T00:05:31.586Z,0.00
2019-03-27T00:06:31.593Z,0.00
2019-03-27T00:07:31.588Z,0.00
2019-03-27T00:08:31.581Z,0.00
2019-03-27T00:09:31.559Z,0.00
2019-03-27T00:10:31.565Z,0.00
2019-03-27T00:11:31.582Z,0.00
2019-03-27T00:12:31.554Z,0.00
2019-03-27T00:13:31.541Z,0.00
2019-03-27T00:14:31.524Z,0.00
2019-03-27T00:15:31.527Z,0.00
2019-03-27T00:16:31.531Z,0.00
2019-03-27T00:17:31.723Z,0.00
2019-03-27T00:18:31.711Z,0.00
2019-03-27T00:19:31.711Z,0.00
2019-03-27T00:20:31.498Z,0.00
2019-03-27T00:21:31.511Z,0.00
2019-03-27T00:22:31.484Z,0.00
2019-03-27T00:23:31.488Z,0.00
2019-03-27T00:24:31.462Z,0.00
2019-03-27T00:25:31.674Z,0.00
2019-03-27T00:26:31.464Z,0.00
2019-03-27T00:27:31.460Z,0.00
2019-03-27T00:28:31.440Z,0.00
2019-03-27T00:29:31.442Z,0.00
2019-03-27T00:30:31.422Z,0.00
2019-03-27T00:31:31.415Z,0.00
2019-03-27T00:32:31.417Z,0.00
2019-03-27T00:33:31.609Z,0.00
2019-03-27T00:34:31.407Z,0.00
2019-03-27T00:35:31.392Z,0.00
2019-03-27T00:36:31.384Z,0.00
2019-03-27T00:37:31.395Z,0.00
2019-03-27T00:38:31.581Z,0.00
2019-03-27T00:39:31.583Z,0.00
2019-03-27T00:40:31.376Z,0.00
2019-03-27T00:41:31.356Z,0.00
2019-03-27T00:42:31.352Z,0.00
2019-03-27T00:43:31.552Z,0.00
2019-03-27T00:44:31.341Z,0.00
2019-03-27T00:45:31.326Z,0.00
2019-03-27T00:46:31.323Z,0.00
2019-03-27T00:47:31.348Z,0.00
2019-03-27T00:48:31.323Z,0.00
2019-03-27T00:49:31.507Z,0.00
2019-03-27T00:50:31.330Z,0.00
2019-03-27T00:51:31.290Z,0.00
2019-03-27T00:52:31.288Z,0.00
2019-03-27T00:53:31.293Z,0.00
2019-03-27T00:54:31.271Z,0.00
2019-03-27T00:55:31.285Z,0.00
2019-03-27T00:56:31.269Z,0.00
2019-03-27T00:57:31.251Z,0.00
2019-03-27T00:58:31.274Z,0.00
2019-03-27T00:59:31.446Z,0.00
2019-03-27T01:00:31.449Z,0.00
2019-03-27T01:01:31.440Z,0.00
2019-03-27T01:02:31.227Z,0.00
2019-03-27T01:03:31.212Z,0.00
2019-03-27T01:04:31.225Z,0.00
2019-03-27T01:05:31.230Z,0.00
2019-03-27T01:06:31.208Z,0.00
2019-03-27T01:07:31.186Z,0.00
2019-03-27T01:08:31.201Z,0.00
2019-03-27T01:09:31.179Z,0.00
2019-03-27T01:10:31.271Z,0.00
2019-03-27T01:11:31.162Z,0.00
2019-03-27T01:12:31.161Z,0.00
2019-03-27T01:13:31.153Z,0.00
2019-03-27T01:14:31.159Z,0.00
2019-03-27T01:15:39.848Z,0.00
2019-03-27T01:16:31.142Z,0.00
2019-03-27T01:17:31.128Z,0.00
2019-03-27T01:18:31.121Z,0.00
2019-03-27T01:19:31.116Z,0.00
2019-03-27T01:20:31.127Z,0.00
2019-03-27T01:21:31.098Z,0.00
2019-03-27T01:22:31.098Z,0.00
2019-03-27T01:23:31.097Z,0.00
2019-03-27T01:24:31.098Z,0.00
2019-03-27T01:25:31.106Z,0.00
2019-03-27T01:26:31.072Z,0.00
2019-03-27T01:27:31.065Z,0.00
2019-03-27T01:28:31.086Z,0.00
2019-03-27T01:29:31.051Z,0.00
2019-03-27T01:30:31.075Z,0.00
2019-03-27T01:31:31.246Z,0.00
2019-03-27T01:32:31.029Z,0.00
2019-03-27T01:33:31.023Z,0.00
2019-03-27T01:34:31.024Z,0.00
2019-03-27T01:35:31.012Z,0.00
2019-03-27T01:36:31.210Z,0.00
2019-03-27T01:37:31.011Z,0.00
2019-03-27T01:38:31.202Z,0.00
2019-03-27T01:39:30.991Z,0.00
2019-03-27T01:40:31.185Z,0.00
2019-03-27T01:41:30.973Z,0.00
2019-03-27T01:42:31.167Z,0.00
2019-03-27T01:43:31.175Z,0.00
2019-03-27T01:44:31.167Z,0.00
2019-03-27T01:45:30.956Z,0.00
2019-03-27T01:46:31.172Z,0.00
2019-03-27T01:47:30.933Z,0.00
2019-03-27T01:48:30.925Z,0.00
2019-03-27T01:49:30.918Z,0.00
2019-03-27T01:50:30.916Z,0.00
2019-03-27T01:51:30.920Z,0.00
2019-03-27T01:52:31.118Z,0.00
2019-03-27T01:53:30.921Z,0.00
2019-03-27T01:54:30.889Z,0.00
2019-03-27T01:55:30.898Z,0.00
2019-03-27T01:56:31.085Z,0.00
2019-03-27T01:57:31.069Z,0.00
2019-03-27T01:58:31.065Z,0.00
2019-03-27T01:59:30.857Z,0.00
2019-03-27T02:00:30.846Z,0.00
2019-03-27T02:01:31.057Z,0.00
2019-03-27T02:02:31.047Z,0.00
2019-03-27T02:03:30.826Z,0.00
2019-03-27T02:04:30.817Z,0.00
2019-03-27T02:05:30.811Z,0.00
2019-03-27T02:06:30.823Z,0.00
2019-03-27T02:07:30.830Z,0.00
2019-03-27T02:08:30.802Z,0.00
2019-03-27T02:09:30.786Z,0.00
2019-03-27T02:10:30.807Z,0.00
2019-03-27T02:11:31.001Z,0.00
2019-03-27T02:12:30.773Z,0.00
2019-03-27T02:13:30.788Z,0.00
2019-03-27T02:14:30.772Z,0.00
2019-03-27T02:15:30.972Z,0.00
2019-03-27T02:16:30.745Z,0.00
2019-03-27T02:17:30.743Z,0.00
2019-03-27T02:18:30.928Z,0.00
2019-03-27T02:19:30.748Z,0.00
2019-03-27T02:20:30.713Z,0.00
2019-03-27T02:21:30.905Z,0.00
2019-03-27T02:22:30.703Z,0.00
2019-03-27T02:23:30.691Z,0.00
2019-03-27T02:24:30.761Z,0.00
2019-03-27T02:25:30.685Z,0.00
2019-03-27T02:26:30.673Z,0.00
2019-03-27T02:27:30.678Z,0.00
2019-03-27T02:28:30.677Z,0.00
2019-03-27T02:29:30.651Z,0.00
2019-03-27T02:30:30.646Z,0.00
2019-03-27T02:31:30.637Z,0.00
2019-03-27T02:32:30.642Z,0.00
2019-03-27T02:33:30.640Z,0.00
2019-03-27T02:34:30.835Z,0.00
2019-03-27T02:35:30.630Z,0.00
2019-03-27T02:36:30.610Z,0.00
2019-03-27T02:37:30.805Z,0.00
2019-03-27T02:38:30.601Z,0.00
2019-03-27T02:39:30.789Z,0.00
2019-03-27T02:40:30.589Z,0.00
2019-03-27T02:41:30.604Z,0.00
2019-03-27T02:42:30.573Z,0.00
2019-03-27T02:43:30.554Z,0.00
2019-03-27T02:44:30.550Z,0.00
2019-03-27T02:45:30.552Z,0.00
2019-03-27T02:46:30.539Z,0.00
2019-03-27T02:47:30.532Z,0.00
2019-03-27T02:48:30.552Z,0.00
2019-03-27T02:49:30.518Z,0.00
2019-03-27T02:50:30.518Z,0.00
2019-03-27T02:51:30.533Z,0.00
2019-03-27T02:52:30.521Z,0.00
2019-03-27T02:53:30.504Z,0.00
2019-03-27T02:54:30.495Z,0.00
2019-03-27T02:55:30.474Z,0.00
2019-03-27T02:56:30.677Z,0.00
2019-03-27T02:57:30.462Z,0.00
2019-03-27T02:58:30.661Z,0.00
2019-03-27T02:59:30.454Z,0.00
2019-03-27T03:00:30.447Z,0.00
2019-03-27T03:01:30.671Z,0.00
2019-03-27T03:02:30.641Z,0.00
2019-03-27T03:03:30.467Z,0.00
2019-03-27T03:04:30.647Z,0.00
2019-03-27T03:05:30.422Z,0.00
2019-03-27T03:06:30.421Z,0.00
2019-03-27T03:07:30.396Z,0.00
2019-03-27T03:08:30.388Z,0.00
2019-03-27T03:09:30.587Z,0.00
2019-03-27T03:10:30.380Z,0.00
2019-03-27T03:11:30.368Z,0.00
2019-03-27T03:12:30.390Z,0.00
2019-03-27T03:13:30.367Z,0.00
2019-03-27T03:14:30.563Z,0.00
2019-03-27T03:15:30.552Z,0.00
2019-03-27T03:16:41.972Z,0.00
2019-03-27T03:17:30.335Z,0.00
2019-03-27T03:18:30.334Z,0.00
2019-03-27T03:19:30.324Z,0.00
2019-03-27T03:20:30.323Z,0.00
2019-03-27T03:21:30.312Z,0.00
2019-03-27T03:22:30.294Z,0.00
2019-03-27T03:23:30.509Z,0.00
2019-03-27T03:24:30.286Z,0.00
2019-03-27T03:25:30.285Z,0.00
2019-03-27T03:26:30.464Z,0.00
2019-03-27T03:27:30.266Z,0.00
2019-03-27T03:28:30.264Z,0.00
2019-03-27T03:29:30.245Z,0.00
2019-03-27T03:30:30.253Z,0.00
2019-03-27T03:31:30.267Z,0.00
2019-03-27T03:32:30.222Z,0.00
2019-03-27T03:33:30.221Z,0.00
2019-03-27T03:34:30.217Z,0.00
2019-03-27T03:35:30.218Z,0.00
2019-03-27T03:36:30.198Z,0.00
2019-03-27T03:37:30.186Z,0.00
2019-03-27T03:38:30.184Z,0.00
2019-03-27T03:39:30.171Z,0.00
2019-03-27T03:40:30.171Z,0.00
2019-03-27T03:41:30.157Z,0.00
2019-03-27T03:42:30.158Z,0.00
2019-03-27T03:43:30.378Z,0.00
2019-03-27T03:44:30.155Z,0.00
2019-03-27T03:45:30.137Z,0.00
2019-03-27T03:46:30.130Z,0.00
2019-03-27T03:47:30.135Z,0.00
2019-03-27T03:48:30.312Z,0.00
2019-03-27T03:49:30.323Z,0.00
2019-03-27T03:50:30.098Z,0.00
2019-03-27T03:51:30.102Z,0.00
2019-03-27T03:52:30.080Z,0.00
2019-03-27T03:53:30.075Z,0.00
2019-03-27T03:54:30.072Z,0.00
2019-03-27T03:55:30.063Z,0.00
2019-03-27T03:56:30.252Z,0.00
2019-03-27T03:57:30.068Z,0.00
2019-03-27T03:58:30.053Z,0.00
2019-03-27T03:59:30.253Z,0.00
2019-03-27T04:00:30.190Z,0.00
2019-03-27T04:01:30.013Z,0.00
2019-03-27T04:02:30.003Z,0.00
2019-03-27T04:03:30.000Z,0.00
2019-03-27T04:04:30.000Z,0.00
2019-03-27T04:05:30.028Z,0.00
2019-03-27T04:06:29.980Z,0.00
2019-03-27T04:07:29.983Z,0.00
2019-03-27T04:08:29.971Z,0.00
2019-03-27T04:09:29.964Z,0.00
2019-03-27T04:10:29.967Z,0.00
2019-03-27T04:11:29.949Z,0.00
2019-03-27T04:12:29.936Z,0.00
2019-03-27T04:13:29.933Z,0.00
2019-03-27T04:14:30.122Z,0.00
2019-03-27T04:15:29.915Z,0.00
2019-03-27T04:16:29.911Z,0.00
2019-03-27T04:17:29.895Z,0.00
2019-03-27T04:18:29.887Z,0.00
2019-03-27T04:19:29.883Z,0.00
2019-03-27T04:20:29.877Z,0.00
2019-03-27T04:21:29.869Z,0.00
2019-03-27T04:22:30.074Z,0.00
2019-03-27T04:23:30.072Z,0.00
2019-03-27T04:24:29.844Z,0.00
2019-03-27T04:25:30.063Z,0.00
2019-03-27T04:26:33.390Z,0.00
2019-03-27T04:27:29.825Z,0.00
2019-03-27T04:28:29.820Z,0.00
2019-03-27T04:29:30.010Z,0.00
2019-03-27T04:30:29.800Z,0.00
2019-03-27T04:31:29.792Z,0.00
2019-03-27T04:32:29.787Z,0.00
2019-03-27T04:33:29.779Z,0.00
2019-03-27T04:34:29.976Z,0.00
2019-03-27T04:35:29.770Z,0.00
2019-03-27T04:36:29.959Z,0.00
2019-03-27T04:37:29.764Z,0.00
2019-03-27T04:38:29.742Z,0.00
2019-03-27T04:39:29.727Z,0.00
2019-03-27T04:40:29.730Z,0.00
2019-03-27T04:41:29.725Z,0.00
2019-03-27T04:42:29.913Z,0.00
2019-03-27T04:43:29.717Z,0.00
2019-03-27T04:44:29.700Z,0.00
2019-03-27T04:45:29.694Z,0.00
2019-03-27T04:46:29.676Z,0.00
2019-03-27T04:47:32.339Z,0.00
2019-03-27T04:48:29.685Z,0.00
2019-03-27T04:49:29.672Z,0.00
2019-03-27T04:50:29.652Z,0.00
2019-03-27T04:51:29.857Z,0.00
2019-03-27T04:52:29.642Z,0.00
2019-03-27T04:53:29.640Z,0.00
2019-03-27T04:54:29.824Z,0.00
2019-03-27T04:55:29.613Z,0.00
2019-03-27T04:56:29.618Z,0.00
2019-03-27T04:57:29.804Z,0.00
2019-03-27T04:58:29.800Z,0.00
2019-03-27T04:59:29.583Z,0.00
2019-03-27T05:00:29.783Z,4.00
2019-03-27T05:01:29.582Z,4.00
2019-03-27T05:02:29.573Z,0.00
2019-03-27T05:03:29.551Z,0.00
2019-03-27T05:04:29.563Z,4.00
2019-03-27T05:05:29.557Z,0.00
2019-03-27T05:06:29.535Z,4.00
2019-03-27T05:07:29.528Z,4.00
2019-03-27T05:08:29.739Z,4.00
2019-03-27T05:09:29.517Z,4.00
2019-03-27T05:10:29.511Z,4.00
2019-03-27T05:11:29.508Z,8.00
2019-03-27T05:12:29.501Z,8.00
2019-03-27T05:13:29.477Z,12.00
2019-03-27T05:14:29.474Z,12.00
2019-03-27T05:15:29.467Z,12.00
2019-03-27T05:16:29.474Z,12.00
2019-03-27T05:17:29.485Z,16.00
2019-03-27T05:18:29.445Z,16.00
2019-03-27T05:19:29.442Z,20.00
2019-03-27T05:20:29.436Z,20.00
2019-03-27T05:21:29.429Z,20.00
2019-03-27T05:22:29.420Z,28.00
2019-03-27T05:23:29.440Z,28.00
2019-03-27T05:24:29.415Z,32.00
2019-03-27T05:25:29.409Z,32.00
2019-03-27T05:26:29.406Z,36.00
2019-03-27T05:27:29.402Z,40.00
2019-03-27T05:28:29.379Z,44.00
2019-03-27T05:29:29.364Z,52.00
2019-03-27T05:30:29.375Z,56.00
2019-03-27T05:31:29.361Z,60.00
2019-03-27T05:32:29.553Z,68.00
2019-03-27T05:33:32.582Z,72.00
2019-03-27T05:34:29.341Z,76.00
2019-03-27T05:35:29.335Z,76.00
2019-03-27T05:36:29.327Z,76.00
2019-03-27T05:37:29.312Z,72.00
2019-03-27T05:38:29.324Z,76.00
2019-03-27T05:39:29.292Z,72.00
2019-03-27T05:40:29.326Z,76.00
2019-03-27T05:41:29.298Z,80.00
2019-03-27T05:42:29.278Z,88.00
2019-03-27T05:43:29.266Z,96.00
2019-03-27T05:44:29.276Z,100.00
2019-03-27T05:45:29.257Z,104.00
2019-03-27T05:46:29.252Z,104.00
2019-03-27T05:47:29.237Z,108.00
2019-03-27T05:48:29.244Z,112.00
2019-03-27T05:49:29.245Z,116.00
2019-03-27T05:50:29.425Z,124.00
2019-03-27T05:51:29.224Z,132.00
2019-03-27T05:52:29.203Z,144.00
2019-03-27T05:53:29.256Z,156.00
2019-03-27T05:54:29.191Z,176.00
2019-03-27T05:55:29.390Z,192.00
2019-03-27T05:56:29.180Z,200.00
2019-03-27T05:57:29.185Z,204.00
2019-03-27T05:58:29.362Z,192.00
2019-03-27T05:59:29.363Z,188.00
2019-03-27T06:00:29.157Z,176.00
2019-03-27T06:01:29.357Z,176.00
2019-03-27T06:02:29.157Z,184.00
2019-03-27T06:03:29.125Z,184.00
2019-03-27T06:04:29.120Z,180.00
2019-03-27T06:05:29.145Z,164.00
2019-03-27T06:06:29.127Z,148.00
2019-03-27T06:07:29.117Z,128.00
2019-03-27T06:08:29.101Z,120.00
2019-03-27T06:09:29.100Z,116.00
2019-03-27T06:10:29.133Z,120.00
2019-03-27T06:11:29.107Z,120.00
2019-03-27T06:12:29.099Z,116.00
2019-03-27T06:13:29.082Z,108.00
2019-03-27T06:14:29.070Z,108.00
2019-03-27T06:15:29.273Z,112.00
2019-03-27T06:16:29.073Z,120.00
2019-03-27T06:17:29.246Z,128.00
2019-03-27T06:18:29.288Z,140.00
2019-03-27T06:19:29.021Z,144.00
2019-03-27T06:20:29.005Z,148.00
2019-03-27T06:21:28.998Z,160.00
2019-03-27T06:22:29.014Z,172.00
2019-03-27T06:23:29.008Z,196.00
2019-03-27T06:24:28.988Z,220.00
2019-03-27T06:25:28.980Z,244.00
2019-03-27T06:26:29.171Z,272.00
2019-03-27T06:27:28.957Z,308.00
2019-03-27T06:28:29.156Z,340.00
2019-03-27T06:29:28.945Z,348.00
2019-03-27T06:30:28.936Z,320.00
2019-03-27T06:31:28.934Z,304.00
2019-03-27T06:32:28.924Z,300.00
2019-03-27T06:33:29.123Z,308.00
2019-03-27T06:34:28.911Z,288.00
2019-03-27T06:35:28.908Z,272.00
2019-03-27T06:36:28.894Z,252.00
2019-03-27T06:37:29.120Z,236.00
2019-03-27T06:38:28.894Z,244.00
2019-03-27T06:39:28.873Z,268.00
2019-03-27T06:40:29.077Z,300.00
2019-03-27T06:41:28.865Z,336.00
2019-03-27T06:42:28.851Z,364.00
2019-03-27T06:43:28.847Z,372.00
2019-03-27T06:44:28.839Z,380.00
2019-03-27T06:45:28.841Z,396.00
2019-03-27T06:46:28.840Z,416.00
2019-03-27T06:47:28.818Z,464.00
2019-03-27T06:48:28.815Z,556.00
2019-03-27T06:49:28.809Z,736.00
2019-03-27T06:50:28.797Z,976.00
2019-03-27T06:51:39.402Z,1160.00
2019-03-27T06:52:28.783Z,1208.00
2019-03-27T06:53:28.778Z,1128.00
2019-03-27T06:54:28.771Z,1024.00
2019-03-27T06:55:28.770Z,1028.00
2019-03-27T06:56:28.757Z,1092.00
2019-03-27T06:57:28.750Z,1128.00
2019-03-27T06:58:28.949Z,1188.00
2019-03-27T06:59:28.737Z,1228.00
2019-03-27T07:00:28.727Z,1100.00
2019-03-27T07:01:28.738Z,1036.00
2019-03-27T07:02:29.078Z,1180.00
2019-03-27T07:03:28.708Z,1404.00
2019-03-27T07:04:28.720Z,1624.00
2019-03-27T07:05:28.704Z,1892.00
2019-03-27T07:06:28.693Z,2148.00
2019-03-27T07:07:28.691Z,2300.00
2019-03-27T07:08:28.695Z,2412.00
2019-03-27T07:09:28.880Z,2544.00
2019-03-27T07:10:28.663Z,2680.00
2019-03-27T07:11:28.662Z,2736.00
2019-03-27T07:12:28.662Z,2852.00
2019-03-27T07:13:28.645Z,2904.00
2019-03-27T07:14:28.641Z,2876.00
2019-03-27T07:15:28.829Z,2892.00
2019-03-27T07:16:28.824Z,2848.00
2019-03-27T07:17:28.618Z,3140.00
2019-03-27T07:18:39.451Z,3208.00
2019-03-27T07:19:28.617Z,3336.00
2019-03-27T07:20:28.816Z,3444.00
2019-03-27T07:21:28.797Z,3380.00
2019-03-27T07:22:28.788Z,3396.00
2019-03-27T07:23:28.578Z,3276.00
2019-03-27T07:24:28.596Z,3380.00
2019-03-27T07:25:28.583Z,3552.00
2019-03-27T07:26:28.562Z,4144.00
2019-03-27T07:27:28.768Z,4260.00
2019-03-27T07:28:28.547Z,4416.00
2019-03-27T07:29:28.745Z,4304.00
2019-03-27T07:30:28.535Z,4316.00
2019-03-27T07:31:28.733Z,4384.00
2019-03-27T07:32:28.522Z,4412.00
2019-03-27T07:33:28.543Z,4484.00
2019-03-27T07:34:28.532Z,4468.00
2019-03-27T07:35:28.524Z,3908.00
2019-03-27T07:36:28.509Z,4832.00
2019-03-27T07:37:28.700Z,4372.00
2019-03-27T07:38:28.502Z,4344.00
2019-03-27T07:39:28.479Z,4544.00
2019-03-27T07:40:28.477Z,5372.00
2019-03-27T07:41:28.472Z,4540.00
2019-03-27T07:42:29.033Z,10032.00
2019-03-27T07:43:28.469Z,9012.00
2019-03-27T07:44:28.452Z,9932.00
2019-03-27T07:45:28.445Z,7196.00
2019-03-27T07:46:28.443Z,8048.00
2019-03-27T07:47:28.440Z,10332.00
2019-03-27T07:48:28.428Z,19072.00
2019-03-27T07:49:28.428Z,16992.00
2019-03-27T07:50:28.627Z,11524.00
2019-03-27T07:51:28.440Z,13220.00
2019-03-27T07:52:28.404Z,15456.00
2019-03-27T07:53:28.611Z,17856.00
2019-03-27T07:54:28.609Z,15648.00
2019-03-27T07:55:28.406Z,8656.00
2019-03-27T07:56:28.395Z,18496.00
2019-03-27T07:57:28.579Z,21088.00
2019-03-27T07:58:28.370Z,17376.00
2019-03-27T07:59:28.590Z,19680.00
2019-03-27T08:00:28.363Z,19072.00
2019-03-27T08:01:28.358Z,6556.00
2019-03-27T08:02:28.367Z,4632.00
2019-03-27T08:03:28.374Z,5660.00
2019-03-27T08:04:28.542Z,7072.00
2019-03-27T08:05:28.334Z,6472.00
2019-03-27T08:06:28.336Z,2836.00
2019-03-27T08:07:28.341Z,3004.00
2019-03-27T08:08:28.374Z,3960.00
2019-03-27T08:09:28.331Z,3760.00
2019-03-27T08:10:28.328Z,14016.00
2019-03-27T08:11:28.342Z,4144.00
2019-03-27T08:12:28.340Z,4276.00
2019-03-27T08:13:28.316Z,4896.00
2019-03-27T08:14:28.297Z,8460.00
2019-03-27T08:15:28.301Z,10140.00
2019-03-27T08:16:28.286Z,7628.00
2019-03-27T08:17:28.290Z,5440.00
2019-03-27T08:18:28.287Z,5628.00
2019-03-27T08:19:28.281Z,4356.00
2019-03-27T08:20:28.260Z,6888.00
2019-03-27T08:21:30.992Z,18208.00
2019-03-27T08:22:28.454Z,14560.00
2019-03-27T08:23:28.255Z,3792.00
2019-03-27T08:24:28.255Z,3640.00
2019-03-27T08:25:28.239Z,5040.00
2019-03-27T08:26:28.231Z,13648.00
2019-03-27T08:27:28.430Z,14720.00
2019-03-27T08:28:28.251Z,15520.00
2019-03-27T08:29:28.220Z,12660.00
2019-03-27T08:30:28.218Z,19200.00
2019-03-27T08:31:28.229Z,18816.00
2019-03-27T08:32:28.227Z,21184.00
2019-03-27T08:33:28.431Z,6320.00
2019-03-27T08:34:28.193Z,2756.00
2019-03-27T08:35:28.418Z,1352.00
2019-03-27T08:36:28.394Z,1396.00
2019-03-27T08:37:28.187Z,1772.00
2019-03-27T08:38:28.178Z,1824.00
2019-03-27T08:39:28.169Z,2340.00
2019-03-27T08:40:28.166Z,3652.00
2019-03-27T08:41:28.171Z,3824.00
2019-03-27T08:42:28.213Z,2152.00
2019-03-27T08:43:28.151Z,1416.00
2019-03-27T08:44:28.151Z,1460.00
2019-03-27T08:45:28.150Z,2056.00
2019-03-27T08:46:28.344Z,1976.00
2019-03-27T08:47:28.148Z,1392.00
2019-03-27T08:48:28.329Z,1356.00
2019-03-27T08:49:28.126Z,1760.00
2019-03-27T08:50:28.319Z,2148.00
2019-03-27T08:51:28.317Z,2736.00
2019-03-27T08:52:28.109Z,2968.00
2019-03-27T08:53:28.105Z,3108.00
2019-03-27T08:54:28.098Z,3096.00
2019-03-27T08:55:28.297Z,2996.00
2019-03-27T08:56:28.083Z,2908.00
2019-03-27T08:57:28.284Z,2860.00
2019-03-27T08:58:28.105Z,2840.00
2019-03-27T08:59:28.084Z,2892.00
2019-03-27T09:00:28.267Z,3016.00
2019-03-27T09:01:28.056Z,3072.00
2019-03-27T09:02:28.053Z,2720.00
2019-03-27T09:03:28.252Z,2172.00
2019-03-27T09:04:28.043Z,2092.00
2019-03-27T09:05:28.061Z,1800.00
2019-03-27T09:06:33.574Z,1584.00
2019-03-27T09:07:28.034Z,1472.00
2019-03-27T09:08:28.239Z,1460.00
2019-03-27T09:09:28.025Z,1452.00
2019-03-27T09:10:28.018Z,1404.00
2019-03-27T09:11:28.038Z,1400.00
2019-03-27T09:12:28.000Z,1400.00
2019-03-27T09:13:28.001Z,1376.00
2019-03-27T09:14:28.007Z,1332.00
2019-03-27T09:15:27.998Z,1308.00
2019-03-27T09:16:27.982Z,1268.00
2019-03-27T09:17:27.987Z,1268.00
2019-03-27T09:18:27.976Z,1264.00
2019-03-27T09:19:35.500Z,1232.00
2019-03-27T09:20:27.961Z,1212.00
2019-03-27T09:21:28.164Z,1236.00
2019-03-27T09:22:27.958Z,1292.00
2019-03-27T09:23:27.945Z,1440.00
2019-03-27T09:24:28.000Z,1684.00
2019-03-27T09:25:27.928Z,1984.00
2019-03-27T09:26:27.926Z,2188.00
2019-03-27T09:27:28.153Z,2292.00
2019-03-27T09:28:27.942Z,2276.00
2019-03-27T09:29:27.916Z,2164.00
2019-03-27T09:30:27.940Z,2124.00
2019-03-27T09:31:27.908Z,2076.00
2019-03-27T09:32:28.108Z,2320.00
2019-03-27T09:33:28.099Z,2580.00
2019-03-27T09:34:27.887Z,2716.00
2019-03-27T09:35:27.907Z,2788.00
2019-03-27T09:36:27.888Z,2764.00
2019-03-27T09:37:27.873Z,2736.00
2019-03-27T09:38:27.878Z,2652.00
2019-03-27T09:39:27.865Z,2436.00
2019-03-27T09:40:27.849Z,1848.00
2019-03-27T09:41:27.845Z,1588.00
2019-03-27T09:42:27.847Z,1456.00
2019-03-27T09:43:27.849Z,1344.00
2019-03-27T09:44:27.840Z,1232.00
2019-03-27T09:45:27.842Z,1152.00
2019-03-27T09:46:27.827Z,1080.00
2019-03-27T09:47:27.817Z,1036.00
2019-03-27T09:48:27.823Z,1012.00
2019-03-27T09:49:28.010Z,996.00
2019-03-27T09:50:27.802Z,984.00
2019-03-27T09:51:27.810Z,980.00
2019-03-27T09:52:27.792Z,980.00
2019-03-27T09:53:27.797Z,984.00
2019-03-27T09:54:27.785Z,988.00
2019-03-27T09:55:27.777Z,976.00
2019-03-27T09:56:27.766Z,972.00
2019-03-27T09:57:27.761Z,964.00
2019-03-27T09:58:27.766Z,956.00
2019-03-27T09:59:27.753Z,964.00
2019-03-27T10:00:27.753Z,964.00
2019-03-27T10:01:27.757Z,972.00
2019-03-27T10:02:27.748Z,976.00
2019-03-27T10:03:27.735Z,996.00
2019-03-27T10:04:27.754Z,1000.00
2019-03-27T10:05:27.721Z,1012.00
2019-03-27T10:06:27.717Z,1016.00
2019-03-27T10:07:27.714Z,1044.00
2019-03-27T10:08:27.709Z,1088.00
2019-03-27T10:09:27.917Z,1128.00
2019-03-27T10:10:27.694Z,1172.00
2019-03-27T10:11:27.696Z,1212.00
2019-03-27T10:12:27.688Z,1212.00
2019-03-27T10:13:27.679Z,1248.00
2019-03-27T10:14:27.704Z,1296.00
2019-03-27T10:15:27.681Z,1364.00
2019-03-27T10:16:27.664Z,1444.00
2019-03-27T10:17:27.680Z,1604.00
2019-03-27T10:18:27.653Z,1764.00
2019-03-27T10:19:27.868Z,1852.00
2019-03-27T10:20:27.643Z,1928.00
2019-03-27T10:21:27.637Z,1980.00
2019-03-27T10:22:27.840Z,1984.00
2019-03-27T10:23:27.626Z,1956.00
2019-03-27T10:24:27.838Z,1772.00
2019-03-27T10:25:27.614Z,1620.00
2019-03-27T10:26:27.610Z,1552.00
2019-03-27T10:27:27.627Z,1544.00
2019-03-27T10:28:27.602Z,1568.00
2019-03-27T10:29:27.608Z,1556.00
2019-03-27T10:30:27.795Z,1500.00
2019-03-27T10:31:27.583Z,1428.00
2019-03-27T10:32:27.596Z,1392.00
2019-03-27T10:33:27.577Z,1340.00
2019-03-27T10:34:27.586Z,1292.00
2019-03-27T10:35:27.762Z,1248.00
2019-03-27T10:36:27.567Z,1216.00
2019-03-27T10:37:27.765Z,1188.00
2019-03-27T10:38:27.563Z,1168.00
2019-03-27T10:39:27.552Z,1152.00
2019-03-27T10:40:27.575Z,1144.00
2019-03-27T10:41:27.551Z,1128.00
2019-03-27T10:42:27.529Z,1116.00
2019-03-27T10:43:27.545Z,1116.00
2019-03-27T10:44:27.525Z,1132.00
2019-03-27T10:45:27.512Z,1132.00
2019-03-27T10:46:27.533Z,1116.00
2019-03-27T10:47:27.505Z,1104.00
2019-03-27T10:48:27.509Z,1108.00
2019-03-27T10:49:27.490Z,1120.00
2019-03-27T10:50:27.508Z,1124.00
2019-03-27T10:51:27.475Z,1124.00
2019-03-27T10:52:27.677Z,1140.00
2019-03-27T10:53:27.775Z,1160.00
2019-03-27T10:54:27.463Z,1192.00
2019-03-27T10:55:27.474Z,1224.00
2019-03-27T10:56:27.479Z,1240.00
2019-03-27T10:57:27.453Z,1256.00
2019-03-27T10:58:27.455Z,1268.00
2019-03-27T10:59:27.436Z,1276.00
2019-03-27T11:00:27.435Z,1272.00
2019-03-27T11:01:27.657Z,1256.00
2019-03-27T11:02:27.432Z,1244.00
2019-03-27T11:03:27.489Z,1240.00
2019-03-27T11:04:27.432Z,1240.00
2019-03-27T11:05:27.413Z,1244.00
2019-03-27T11:06:27.401Z,1256.00
2019-03-27T11:07:27.404Z,1264.00
2019-03-27T11:08:27.409Z,1276.00
2019-03-27T11:09:27.387Z,1284.00
2019-03-27T11:10:27.381Z,1292.00
2019-03-27T11:11:27.389Z,1300.00
2019-03-27T11:12:27.374Z,1304.00
2019-03-27T11:13:27.579Z,1308.00
2019-03-27T11:14:37.129Z,1296.00
2019-03-27T11:15:27.553Z,1276.00
2019-03-27T11:16:27.365Z,1288.00
2019-03-27T11:17:27.372Z,1316.00
2019-03-27T11:18:27.348Z,1356.00
2019-03-27T11:19:27.328Z,1380.00
2019-03-27T11:20:31.124Z,1392.00
2019-03-27T11:21:27.337Z,1424.00
2019-03-27T11:22:27.520Z,1480.00
2019-03-27T11:23:27.331Z,1552.00
2019-03-27T11:24:27.312Z,1628.00
2019-03-27T11:25:27.347Z,1672.00
2019-03-27T11:26:27.307Z,1828.00
2019-03-27T11:27:27.296Z,1844.00
2019-03-27T11:28:27.287Z,1860.00
2019-03-27T11:29:27.485Z,1784.00
2019-03-27T11:30:27.276Z,1692.00
2019-03-27T11:31:27.475Z,1684.00
2019-03-27T11:32:27.474Z,1552.00
2019-03-27T11:33:28.925Z,1544.00
2019-03-27T11:34:27.267Z,1444.00
2019-03-27T11:35:27.247Z,1420.00
2019-03-27T11:36:27.251Z,1452.00
2019-03-27T11:37:27.237Z,1516.00
2019-03-27T11:38:27.237Z,1608.00
2019-03-27T11:39:27.231Z,1684.00
2019-03-27T11:40:27.224Z,1760.00
2019-03-27T11:41:27.459Z,1784.00
2019-03-27T11:42:27.214Z,1768.00
2019-03-27T11:43:27.209Z,1716.00
2019-03-27T11:44:27.204Z,1696.00
2019-03-27T11:45:27.217Z,1636.00
2019-03-27T11:46:27.208Z,1552.00
2019-03-27T11:47:27.413Z,1468.00
2019-03-27T11:48:27.182Z,1372.00
2019-03-27T11:49:27.185Z,1304.00
2019-03-27T11:50:27.178Z,1240.00
2019-03-27T11:51:27.198Z,1196.00
2019-03-27T11:52:29.725Z,1144.00
2019-03-27T11:53:27.171Z,1056.00
2019-03-27T11:54:27.157Z,992.00
2019-03-27T11:55:27.157Z,956.00
2019-03-27T11:56:27.146Z,940.00
2019-03-27T11:57:27.153Z,948.00
2019-03-27T11:58:27.154Z,968.00
2019-03-27T11:59:27.347Z,988.00
2019-03-27T12:00:27.331Z,988.00
2019-03-27T12:01:39.216Z,996.00
2019-03-27T12:02:27.325Z,1000.00
2019-03-27T12:03:27.126Z,1008.00
2019-03-27T12:04:27.110Z,1016.00
2019-03-27T12:05:27.306Z,1012.00
2019-03-27T12:06:27.105Z,1020.00
2019-03-27T12:07:27.108Z,1020.00
2019-03-27T12:08:27.108Z,1032.00
2019-03-27T12:09:27.085Z,1052.00
2019-03-27T12:10:27.086Z,1068.00
2019-03-27T12:11:27.094Z,1068.00
2019-03-27T12:12:27.096Z,1072.00
2019-03-27T12:13:27.069Z,1084.00
2019-03-27T12:14:27.062Z,1096.00
2019-03-27T12:15:27.059Z,1120.00
2019-03-27T12:16:27.072Z,1156.00
2019-03-27T12:17:27.056Z,1192.00
2019-03-27T12:18:27.040Z,1248.00
2019-03-27T12:19:27.253Z,1320.00
2019-03-27T12:20:27.045Z,1384.00
2019-03-27T12:21:27.046Z,1440.00
2019-03-27T12:22:27.019Z,1492.00
2019-03-27T12:23:27.027Z,1536.00
2019-03-27T12:24:28.720Z,1564.00
2019-03-27T12:25:27.014Z,1548.00
2019-03-27T12:26:27.007Z,1476.00
2019-03-27T12:27:26.996Z,1404.00
2019-03-27T12:28:27.005Z,1352.00
2019-03-27T12:29:26.991Z,1328.00
2019-03-27T12:30:26.986Z,1320.00
2019-03-27T12:31:26.982Z,1300.00
2019-03-27T12:32:26.969Z,1328.00
2019-03-27T12:33:26.978Z,1368.00
2019-03-27T12:34:26.970Z,1408.00
2019-03-27T12:35:26.966Z,1456.00
2019-03-27T12:36:26.958Z,1496.00
2019-03-27T12:37:26.959Z,1540.00
2019-03-27T12:38:26.962Z,1564.00